sensor_id;sensor_type;location;lat;lon;timestamp;pressure;altitude;pressure_sealevel;temperature;humidity
74960;BME280;63518;49.572;1.106;2022-11-15T00:01:44;98866.56;;;9.58;82.22
74960;BME280;63518;49.572;1.106;2022-11-15T00:04:12;98861.09;;;9.58;81.07
74960;BME280;63518;49.572;1.106;2022-11-15T00:06:40;98840.47;;;9.61;82.25
74960;BME280;63518;49.572;1.106;2022-11-15T00:09:13;98880.66;;;9.81;81.65
74960;BME280;63518;49.572;1.106;2022-11-15T00:11:40;98819.75;;;9.44;81.39
74960;BME280;63518;49.572;1.106;2022-11-15T00:14:10;98835.63;;;9.47;82.29
74960;BME280;63518;49.572;1.106;2022-11-15T00:16:39;98868.72;;;9.61;82.82
74960;BME280;63518;49.572;1.106;2022-11-15T00:19:10;98870.94;;;9.59;80.04
74960;BME280;63518;49.572;1.106;2022-11-15T00:21:40;98825.06;;;9.36;81.10
74960;BME280;63518;49.572;1.106;2022-11-15T00:24:10;98866.13;;;9.75;81.06
74960;BME280;63518;49.572;1.106;2022-11-15T00:26:51;98806.31;;;9.48;79.38
74960;BME280;63518;49.572;1.106;2022-11-15T00:29:21;98817.72;;;9.55;80.01
74960;BME280;63518;49.572;1.106;2022-11-15T00:31:50;98836.09;;;9.60;80.93
74960;BME280;63518;49.572;1.106;2022-11-15T00:34:18;98814.22;;;9.20;80.60
74960;BME280;63518;49.572;1.106;2022-11-15T00:36:47;98833.16;;;9.17;80.75
74960;BME280;63518;49.572;1.106;2022-11-15T00:39:14;98828.28;;;9.43;80.75
74960;BME280;63518;49.572;1.106;2022-11-15T00:41:42;98818.56;;;9.21;82.65
74960;BME280;63518;49.572;1.106;2022-11-15T00:44:09;98816.72;;;9.17;82.22
74960;BME280;63518;49.572;1.106;2022-11-15T00:46:41;98820.78;;;9.25;82.61
74960;BME280;63518;49.572;1.106;2022-11-15T00:49:12;98816.09;;;9.25;80.85
74960;BME280;63518;49.572;1.106;2022-11-15T00:51:39;98810.06;;;9.23;82.13
74960;BME280;63518;49.572;1.106;2022-11-15T00:54:06;98851.19;;;9.23;82.85
74960;BME280;63518;49.572;1.106;2022-11-15T00:56:36;98806.25;;;9.19;82.75
74960;BME280;63518;49.572;1.106;2022-11-15T00:59:03;98838.19;;;9.39;80.97
74960;BME280;63518;49.572;1.106;2022-11-15T01:01:33;98818.75;;;9.01;82.94
74960;BME280;63518;49.572;1.106;2022-11-15T01:04:02;98770.38;;;8.76;81.56
74960;BME280;63518;49.572;1.106;2022-11-15T01:06:34;98807.22;;;8.99;82.33
74960;BME280;63518;49.572;1.106;2022-11-15T01:09:02;98831.44;;;9.26;82.02
74960;BME280;63518;49.572;1.106;2022-11-15T01:11:34;98774.50;;;8.79;81.54
74960;BME280;63518;49.572;1.106;2022-11-15T01:14:06;98826.19;;;9.30;81.97
74960;BME280;63518;49.572;1.106;2022-11-15T01:16:34;98791.94;;;9.27;82.34
74960;BME280;63518;49.572;1.106;2022-11-15T01:19:03;98803.00;;;9.17;81.54
74960;BME280;63518;49.572;1.106;2022-11-15T01:21:33;98787.78;;;9.30;81.71
74960;BME280;63518;49.572;1.106;2022-11-15T01:24:01;98752.84;;;9.11;82.07
74960;BME280;63518;49.572;1.106;2022-11-15T01:26:29;98722.56;;;8.58;82.25
74960;BME280;63518;49.572;1.106;2022-11-15T01:28:59;98780.13;;;9.56;79.94
74960;BME280;63518;49.572;1.106;2022-11-15T01:31:28;98780.09;;;9.32;80.81
74960;BME280;63518;49.572;1.106;2022-11-15T01:33:55;98725.66;;;9.15;80.69
74960;BME280;63518;49.572;1.106;2022-11-15T01:36:22;98717.16;;;8.82;80.39
74960;BME280;63518;49.572;1.106;2022-11-15T01:38:56;98696.94;;;9.07;80.45
74960;BME280;63518;49.572;1.106;2022-11-15T01:41:27;98755.75;;;9.25;81.20
74960;BME280;63518;49.572;1.106;2022-11-15T01:44:25;98710.09;;;9.10;81.37
74960;BME280;63518;49.572;1.106;2022-11-15T01:46:47;98719.69;;;8.79;81.58
74960;BME280;63518;49.572;1.106;2022-11-15T01:49:18;98704.47;;;8.62;82.52
74960;BME280;63518;49.572;1.106;2022-11-15T01:51:49;98752.06;;;9.06;81.79
74960;BME280;63518;49.572;1.106;2022-11-15T01:54:18;98745.97;;;9.14;81.38
74960;BME280;63518;49.572;1.106;2022-11-15T01:57:00;98688.84;;;8.92;81.23
74960;BME280;63518;49.572;1.106;2022-11-15T01:59:32;98668.09;;;8.52;81.92
74960;BME280;63518;49.572;1.106;2022-11-15T02:02:05;98726.56;;;9.05;82.21
74960;BME280;63518;49.572;1.106;2022-11-15T02:04:37;98680.19;;;8.80;82.79
74960;BME280;63518;49.572;1.106;2022-11-15T02:07:18;98708.72;;;9.08;81.53
74960;BME280;63518;49.572;1.106;2022-11-15T02:09:47;98667.31;;;8.80;82.87
74960;BME280;63518;49.572;1.106;2022-11-15T02:12:19;98670.97;;;8.71;82.56
74960;BME280;63518;49.572;1.106;2022-11-15T02:14:51;98650.47;;;8.92;82.08
74960;BME280;63518;49.572;1.106;2022-11-15T02:29:10;98672.63;;;9.01;82.07
74960;BME280;63518;49.572;1.106;2022-11-15T02:32:00;98668.25;;;9.23;81.55
74960;BME280;63518;49.572;1.106;2022-11-15T02:34:43;98665.66;;;9.08;83.03
74960;BME280;63518;49.572;1.106;2022-11-15T02:37:39;98668.25;;;9.95;78.89
74960;BME280;63518;49.572;1.106;2022-11-15T02:43:09;98647.19;;;9.19;80.40
74960;BME280;63518;49.572;1.106;2022-11-15T02:46:02;98594.59;;;8.88;80.41
74960;BME280;63518;49.572;1.106;2022-11-15T02:48:32;98650.50;;;9.16;80.02
74960;BME280;63518;49.572;1.106;2022-11-15T02:51:01;98586.84;;;8.71;81.97
74960;BME280;63518;49.572;1.106;2022-11-15T02:53:29;98567.06;;;8.74;81.64
74960;BME280;63518;49.572;1.106;2022-11-15T02:55:57;98629.75;;;9.34;79.28
74960;BME280;63518;49.572;1.106;2022-11-15T03:04:16;98574.78;;;8.67;80.12
74960;BME280;63518;49.572;1.106;2022-11-15T03:06:55;98545.53;;;8.62;81.63
74960;BME280;63518;49.572;1.106;2022-11-15T03:09:34;98583.84;;;8.67;81.56
74960;BME280;63518;49.572;1.106;2022-11-15T03:12:27;98591.09;;;8.82;80.53
74960;BME280;63518;49.572;1.106;2022-11-15T03:15:29;98586.38;;;8.88;81.38
74960;BME280;63518;49.572;1.106;2022-11-15T03:18:06;98562.22;;;8.32;83.79
74960;BME280;63518;49.572;1.106;2022-11-15T03:20:36;98568.44;;;8.43;82.99
74960;BME280;63518;49.572;1.106;2022-11-15T03:23:08;98537.94;;;8.54;82.24
74960;BME280;63518;49.572;1.106;2022-11-15T03:25:48;98542.69;;;8.73;80.73
74960;BME280;63518;49.572;1.106;2022-11-15T03:28:22;98584.66;;;8.68;82.88
74960;BME280;63518;49.572;1.106;2022-11-15T03:30:52;98512.16;;;8.26;81.91
74960;BME280;63518;49.572;1.106;2022-11-15T03:33:25;98540.91;;;8.58;81.63
74960;BME280;63518;49.572;1.106;2022-11-15T03:35:54;98533.66;;;8.43;82.75
74960;BME280;63518;49.572;1.106;2022-11-15T03:38:26;98571.72;;;8.74;80.98
74960;BME280;63518;49.572;1.106;2022-11-15T03:41:02;98535.84;;;8.46;82.57
74960;BME280;63518;49.572;1.106;2022-11-15T03:43:41;98542.19;;;8.94;80.92
74960;BME280;63518;49.572;1.106;2022-11-15T03:46:14;98551.50;;;8.41;82.56
74960;BME280;63518;49.572;1.106;2022-11-15T03:48:51;98565.22;;;8.35;82.76
74960;BME280;63518;49.572;1.106;2022-11-15T03:51:22;98560.34;;;8.61;82.58
74960;BME280;63518;49.572;1.106;2022-11-15T03:53:52;98517.03;;;8.29;82.85
74960;BME280;63518;49.572;1.106;2022-11-15T03:56:24;98494.75;;;8.12;82.82
74960;BME280;63518;49.572;1.106;2022-11-15T03:58:52;98480.91;;;8.27;81.91
74960;BME280;63518;49.572;1.106;2022-11-15T04:01:28;98508.56;;;8.31;81.88
74960;BME280;63518;49.572;1.106;2022-11-15T04:03:57;98530.47;;;8.31;82.61
74960;BME280;63518;49.572;1.106;2022-11-15T04:06:30;98489.38;;;8.02;84.11
74960;BME280;63518;49.572;1.106;2022-11-15T04:08:57;98502.78;;;8.32;81.86
74960;BME280;63518;49.572;1.106;2022-11-15T04:11:24;98532.28;;;8.46;82.61
74960;BME280;63518;49.572;1.106;2022-11-15T04:13:52;98518.34;;;8.42;81.07
74960;BME280;63518;49.572;1.106;2022-11-15T04:16:19;98470.06;;;8.17;82.64
74960;BME280;63518;49.572;1.106;2022-11-15T04:18:49;98500.03;;;8.37;80.99
74960;BME280;63518;49.572;1.106;2022-11-15T04:21:36;98516.88;;;8.79;80.21
74960;BME280;63518;49.572;1.106;2022-11-15T04:24:24;98480.25;;;8.46;80.28
74960;BME280;63518;49.572;1.106;2022-11-15T04:26:54;98492.47;;;8.24;82.67
74960;BME280;63518;49.572;1.106;2022-11-15T04:29:21;98482.66;;;8.18;81.82
74960;BME280;63518;49.572;1.106;2022-11-15T04:32:05;98468.25;;;8.36;80.93
74960;BME280;63518;49.572;1.106;2022-11-15T04:34:34;98491.56;;;8.87;80.15
74960;BME280;63518;49.572;1.106;2022-11-15T04:37:02;98481.22;;;8.55;79.57
74960;BME280;63518;49.572;1.106;2022-11-15T04:39:44;98480.31;;;8.64;81.27
74960;BME280;63518;49.572;1.106;2022-11-15T04:42:14;98503.34;;;8.87;80.89
74960;BME280;63518;49.572;1.106;2022-11-15T04:44:42;98435.69;;;8.59;80.61
74960;BME280;63518;49.572;1.106;2022-11-15T04:47:11;98446.44;;;8.26;81.84
74960;BME280;63518;49.572;1.106;2022-11-15T04:49:41;98439.97;;;8.70;81.00
74960;BME280;63518;49.572;1.106;2022-11-15T04:52:10;98441.91;;;8.88;79.61
74960;BME280;63518;49.572;1.106;2022-11-15T04:54:38;98421.19;;;8.58;80.28
74960;BME280;63518;49.572;1.106;2022-11-15T04:57:05;98471.38;;;8.78;81.43
74960;BME280;63518;49.572;1.106;2022-11-15T04:59:33;98427.09;;;8.18;83.14
74960;BME280;63518;49.572;1.106;2022-11-15T05:02:02;98414.75;;;8.68;80.89
74960;BME280;63518;49.572;1.106;2022-11-15T05:04:41;98402.50;;;8.12;83.35
74960;BME280;63518;49.572;1.106;2022-11-15T05:07:08;98441.66;;;8.66;82.12
74960;BME280;63518;49.572;1.106;2022-11-15T05:09:36;98399.75;;;8.42;81.61
74960;BME280;63518;49.572;1.106;2022-11-15T05:12:04;98432.47;;;8.76;82.13
74960;BME280;63518;49.572;1.106;2022-11-15T05:14:35;98403.13;;;8.28;81.74
74960;BME280;63518;49.572;1.106;2022-11-15T05:17:05;98437.81;;;9.10;81.03
74960;BME280;63518;49.572;1.106;2022-11-15T05:19:33;98439.31;;;8.78;82.42
74960;BME280;63518;49.572;1.106;2022-11-15T05:22:00;98406.63;;;8.63;82.15
74960;BME280;63518;49.572;1.106;2022-11-15T05:24:30;98410.81;;;8.98;82.56
74960;BME280;63518;49.572;1.106;2022-11-15T05:26:57;98413.69;;;8.69;82.73
74960;BME280;63518;49.572;1.106;2022-11-15T05:29:29;98371.50;;;8.46;82.89
74960;BME280;63518;49.572;1.106;2022-11-15T05:31:56;98334.94;;;8.32;81.30
74960;BME280;63518;49.572;1.106;2022-11-15T05:34:24;98319.66;;;8.26;80.99
74960;BME280;63518;49.572;1.106;2022-11-15T05:36:52;98377.00;;;8.65;83.18
74960;BME280;63518;49.572;1.106;2022-11-15T05:39:23;98366.69;;;8.57;82.72
74960;BME280;63518;49.572;1.106;2022-11-15T05:41:57;98379.88;;;8.55;84.29
74960;BME280;63518;49.572;1.106;2022-11-15T05:44:28;98364.06;;;8.71;84.46
74960;BME280;63518;49.572;1.106;2022-11-15T05:46:56;98321.25;;;8.32;85.02
74960;BME280;63518;49.572;1.106;2022-11-15T05:49:26;98380.59;;;8.60;83.43
74960;BME280;63518;49.572;1.106;2022-11-15T05:51:59;98340.47;;;8.51;85.01
74960;BME280;63518;49.572;1.106;2022-11-15T05:54:31;98317.75;;;8.50;84.33
74960;BME280;63518;49.572;1.106;2022-11-15T05:56:59;98321.59;;;8.68;83.69
74960;BME280;63518;49.572;1.106;2022-11-15T05:59:31;98345.94;;;8.51;84.50
74960;BME280;63518;49.572;1.106;2022-11-15T06:02:01;98307.84;;;8.54;83.46
74960;BME280;63518;49.572;1.106;2022-11-15T06:04:31;98308.56;;;8.41;83.87
74960;BME280;63518;49.572;1.106;2022-11-15T06:06:59;98349.09;;;8.82;82.43
74960;BME280;63518;49.572;1.106;2022-11-15T06:09:27;98337.53;;;8.66;83.02
74960;BME280;63518;49.572;1.106;2022-11-15T06:11:57;98359.44;;;9.22;81.71
74960;BME280;63518;49.572;1.106;2022-11-15T06:14:24;98359.56;;;9.17;80.58
74960;BME280;63518;49.572;1.106;2022-11-15T06:16:51;98358.38;;;8.86;83.42
74960;BME280;63518;49.572;1.106;2022-11-15T06:19:19;98327.41;;;8.85;83.60
74960;BME280;63518;49.572;1.106;2022-11-15T06:21:46;98339.81;;;9.15;82.90
74960;BME280;63518;49.572;1.106;2022-11-15T06:24:15;98331.69;;;9.10;82.65
74960;BME280;63518;49.572;1.106;2022-11-15T06:26:45;98324.72;;;9.18;81.96
74960;BME280;63518;49.572;1.106;2022-11-15T06:29:13;98345.75;;;9.22;82.14
74960;BME280;63518;49.572;1.106;2022-11-15T06:31:41;98335.25;;;9.11;82.43
74960;BME280;63518;49.572;1.106;2022-11-15T06:34:10;98280.66;;;8.95;82.69
74960;BME280;63518;49.572;1.106;2022-11-15T06:36:37;98304.13;;;9.02;83.94
74960;BME280;63518;49.572;1.106;2022-11-15T06:39:05;98295.66;;;8.98;83.28
74960;BME280;63518;49.572;1.106;2022-11-15T06:41:35;98295.59;;;9.03;82.86
74960;BME280;63518;49.572;1.106;2022-11-15T06:44:03;98320.25;;;8.84;84.13
74960;BME280;63518;49.572;1.106;2022-11-15T06:46:30;98320.59;;;9.02;83.33
74960;BME280;63518;49.572;1.106;2022-11-15T06:48:57;98265.84;;;8.59;83.03
74960;BME280;63518;49.572;1.106;2022-11-15T06:51:25;98334.53;;;9.38;82.24
74960;BME280;63518;49.572;1.106;2022-11-15T06:53:52;98340.13;;;9.14;82.69
74960;BME280;63518;49.572;1.106;2022-11-15T06:56:27;98292.44;;;9.29;82.56
74960;BME280;63518;49.572;1.106;2022-11-15T06:58:55;98261.84;;;8.89;82.63
74960;BME280;63518;49.572;1.106;2022-11-15T07:01:22;98309.28;;;9.22;82.01
74960;BME280;63518;49.572;1.106;2022-11-15T07:03:57;98299.59;;;8.92;84.47
74960;BME280;63518;49.572;1.106;2022-11-15T07:06:24;98283.59;;;9.18;82.88
74960;BME280;63518;49.572;1.106;2022-11-15T07:08:56;98275.09;;;9.33;80.68
74960;BME280;63518;49.572;1.106;2022-11-15T07:11:27;98271.56;;;9.46;81.35
74960;BME280;63518;49.572;1.106;2022-11-15T07:13:57;98255.59;;;9.02;83.71
74960;BME280;63518;49.572;1.106;2022-11-15T07:16:24;98277.53;;;9.35;83.39
74960;BME280;63518;49.572;1.106;2022-11-15T07:18:52;98271.13;;;9.39;83.37
74960;BME280;63518;49.572;1.106;2022-11-15T07:21:19;98287.50;;;9.44;81.59
74960;BME280;63518;49.572;1.106;2022-11-15T07:23:53;98255.91;;;9.33;82.73
74960;BME280;63518;49.572;1.106;2022-11-15T07:26:20;98269.50;;;9.25;83.93
74960;BME280;63518;49.572;1.106;2022-11-15T07:28:57;98267.88;;;9.37;83.06
74960;BME280;63518;49.572;1.106;2022-11-15T07:31:25;98270.06;;;9.68;82.79
74960;BME280;63518;49.572;1.106;2022-11-15T07:34:01;98202.94;;;9.19;81.09
74960;BME280;63518;49.572;1.106;2022-11-15T07:36:28;98202.34;;;8.89;83.29
74960;BME280;63518;49.572;1.106;2022-11-15T07:38:58;98217.34;;;9.11;83.79
74960;BME280;63518;49.572;1.106;2022-11-15T07:41:25;98271.78;;;9.50;82.60
74960;BME280;63518;49.572;1.106;2022-11-15T07:43:52;98278.50;;;9.58;83.09
74960;BME280;63518;49.572;1.106;2022-11-15T07:46:22;98231.22;;;9.47;82.17
74960;BME280;63518;49.572;1.106;2022-11-15T07:48:58;98258.75;;;9.56;83.04
74960;BME280;63518;49.572;1.106;2022-11-15T07:51:25;98205.81;;;8.95;83.95
74960;BME280;63518;49.572;1.106;2022-11-15T07:53:54;98220.28;;;9.14;84.53
74960;BME280;63518;49.572;1.106;2022-11-15T07:56:24;98221.81;;;9.20;82.82
74960;BME280;63518;49.572;1.106;2022-11-15T07:58:51;98246.19;;;10.10;82.44
74960;BME280;63518;49.572;1.106;2022-11-15T08:01:19;98210.41;;;9.60;81.43
74960;BME280;63518;49.572;1.106;2022-11-15T08:03:46;98231.44;;;9.92;81.53
74960;BME280;63518;49.572;1.106;2022-11-15T08:06:13;98218.84;;;9.49;82.15
74960;BME280;63518;49.572;1.106;2022-11-15T08:08:41;98249.25;;;9.67;83.65
74960;BME280;63518;49.572;1.106;2022-11-15T08:11:08;98238.25;;;9.53;82.64
74960;BME280;63518;49.572;1.106;2022-11-15T08:13:36;98243.25;;;10.20;80.80
74960;BME280;63518;49.572;1.106;2022-11-15T08:16:09;98232.66;;;10.13;82.08
74960;BME280;63518;49.572;1.106;2022-11-15T08:18:40;98237.16;;;10.23;81.83
74960;BME280;63518;49.572;1.106;2022-11-15T08:21:19;98209.81;;;9.76;81.92
74960;BME280;63518;49.572;1.106;2022-11-15T08:23:48;98217.22;;;10.03;81.50
74960;BME280;63518;49.572;1.106;2022-11-15T08:26:16;98246.41;;;9.86;83.56
74960;BME280;63518;49.572;1.106;2022-11-15T08:28:47;98265.19;;;9.78;83.58
74960;BME280;63518;49.572;1.106;2022-11-15T08:31:16;98229.09;;;10.26;81.16
74960;BME280;63518;49.572;1.106;2022-11-15T08:33:52;98221.91;;;9.75;82.96
74960;BME280;63518;49.572;1.106;2022-11-15T08:36:19;98243.13;;;9.70;84.73
74960;BME280;63518;49.572;1.106;2022-11-15T08:38:46;98196.88;;;9.63;82.94
74960;BME280;63518;49.572;1.106;2022-11-15T08:41:40;98235.31;;;10.04;82.36
74960;BME280;63518;49.572;1.106;2022-11-15T08:44:06;98229.00;;;9.76;83.52
74960;BME280;63518;49.572;1.106;2022-11-15T08:46:33;98190.91;;;9.75;83.42
74960;BME280;63518;49.572;1.106;2022-11-15T08:49:01;98191.81;;;9.84;83.74
74960;BME280;63518;49.572;1.106;2022-11-15T08:51:28;98237.97;;;9.82;84.51
74960;BME280;63518;49.572;1.106;2022-11-15T08:53:58;98204.00;;;9.92;83.23
74960;BME280;63518;49.572;1.106;2022-11-15T08:56:25;98193.63;;;9.75;83.08
74960;BME280;63518;49.572;1.106;2022-11-15T08:58:52;98189.06;;;9.84;83.94
74960;BME280;63518;49.572;1.106;2022-11-15T09:01:23;98220.06;;;10.12;83.58
74960;BME280;63518;49.572;1.106;2022-11-15T09:03:55;98244.97;;;10.02;84.37
74960;BME280;63518;49.572;1.106;2022-11-15T09:06:22;98220.88;;;9.85;84.06
74960;BME280;63518;49.572;1.106;2022-11-15T09:08:49;98241.22;;;10.25;83.24
74960;BME280;63518;49.572;1.106;2022-11-15T09:11:18;98229.22;;;10.35;82.75
74960;BME280;63518;49.572;1.106;2022-11-15T09:13:51;98183.06;;;9.82;83.57
74960;BME280;63518;49.572;1.106;2022-11-15T09:16:20;98180.19;;;10.01;82.83
74960;BME280;63518;49.572;1.106;2022-11-15T09:18:53;98217.13;;;10.22;82.77
74960;BME280;63518;49.572;1.106;2022-11-15T09:21:22;98172.88;;;9.96;83.99
74960;BME280;63518;49.572;1.106;2022-11-15T09:23:53;98172.38;;;9.94;84.91
74960;BME280;63518;49.572;1.106;2022-11-15T09:26:20;98213.00;;;10.33;84.19
74960;BME280;63518;49.572;1.106;2022-11-15T09:28:58;98161.38;;;10.08;84.77
74960;BME280;63518;49.572;1.106;2022-11-15T09:31:25;98153.53;;;10.01;83.30
74960;BME280;63518;49.572;1.106;2022-11-15T09:33:55;98195.22;;;10.17;84.41
74960;BME280;63518;49.572;1.106;2022-11-15T09:36:24;98150.31;;;9.99;84.71
74960;BME280;63518;49.572;1.106;2022-11-15T09:38:57;98138.78;;;10.11;83.85
74960;BME280;63518;49.572;1.106;2022-11-15T09:50:14;98156.94;;;10.34;83.80
74960;BME280;63518;49.572;1.106;2022-11-15T09:52:44;98133.16;;;10.30;84.49
74960;BME280;63518;49.572;1.106;2022-11-15T09:55:14;98107.75;;;10.24;82.63
74960;BME280;63518;49.572;1.106;2022-11-15T09:58:04;98086.34;;;9.99;85.02
74960;BME280;63518;49.572;1.106;2022-11-15T10:00:42;98105.38;;;10.18;84.12
74960;BME280;63518;49.572;1.106;2022-11-15T10:03:16;98153.16;;;10.44;85.03
74960;BME280;63518;49.572;1.106;2022-11-15T10:05:49;98120.19;;;9.94;84.85
74960;BME280;63518;49.572;1.106;2022-11-15T10:11:05;98078.53;;;10.28;84.57
74960;BME280;63518;49.572;1.106;2022-11-15T10:13:57;98134.38;;;10.60;83.98
74960;BME280;63518;49.572;1.106;2022-11-15T10:24:44;98102.53;;;10.90;83.13
74960;BME280;63518;49.572;1.106;2022-11-15T10:27:17;98080.47;;;10.28;84.44
74960;BME280;63518;49.572;1.106;2022-11-15T10:29:49;98080.91;;;10.44;84.65
74960;BME280;63518;49.572;1.106;2022-11-15T10:32:20;98054.84;;;10.41;85.54
74960;BME280;63518;49.572;1.106;2022-11-15T10:34:48;98062.22;;;10.54;85.45
74960;BME280;63518;49.572;1.106;2022-11-15T10:37:30;98074.38;;;10.84;83.10
74960;BME280;63518;49.572;1.106;2022-11-15T10:40:18;98078.59;;;10.59;84.61
74960;BME280;63518;49.572;1.106;2022-11-15T10:42:47;98061.56;;;10.80;84.15
74960;BME280;63518;49.572;1.106;2022-11-15T10:45:27;98064.72;;;10.96;84.08
74960;BME280;63518;49.572;1.106;2022-11-15T10:50:46;98011.50;;;10.60;84.19
74960;BME280;63518;49.572;1.106;2022-11-15T10:53:25;97994.34;;;10.55;84.68
74960;BME280;63518;49.572;1.106;2022-11-15T10:56:03;98032.81;;;10.86;85.20
74960;BME280;63518;49.572;1.106;2022-11-15T10:58:43;98034.06;;;10.80;85.43
74960;BME280;63518;49.572;1.106;2022-11-15T11:03:45;97947.31;;;10.65;84.52
74960;BME280;63518;49.572;1.106;2022-11-15T11:06:17;98010.88;;;10.63;85.53
74960;BME280;63518;49.572;1.106;2022-11-15T11:09:00;97967.63;;;10.86;85.59
74960;BME280;63518;49.572;1.106;2022-11-15T11:11:48;97950.03;;;10.96;85.00
74960;BME280;63518;49.572;1.106;2022-11-15T11:14:26;97940.88;;;10.70;84.17
74960;BME280;63518;49.572;1.106;2022-11-15T11:17:21;97977.63;;;11.31;84.29
74960;BME280;63518;49.572;1.106;2022-11-15T11:25:34;97970.88;;;11.45;84.81
74960;BME280;63518;49.572;1.106;2022-11-15T11:39:00;97978.41;;;11.14;85.06
74960;BME280;63518;49.572;1.106;2022-11-15T11:45:01;97959.00;;;11.28;83.72
74960;BME280;63518;49.572;1.106;2022-11-15T11:47:39;97941.66;;;11.18;84.45
74960;BME280;63518;49.572;1.106;2022-11-15T11:50:33;97949.44;;;11.16;84.57
74960;BME280;63518;49.572;1.106;2022-11-15T11:53:21;97952.06;;;11.73;84.13
74960;BME280;63518;49.572;1.106;2022-11-15T11:55:56;97927.91;;;11.27;83.99
74960;BME280;63518;49.572;1.106;2022-11-15T11:58:36;97907.81;;;11.01;85.46
74960;BME280;63518;49.572;1.106;2022-11-15T12:04:03;97935.81;;;11.11;85.29
74960;BME280;63518;49.572;1.106;2022-11-15T12:09:39;97922.59;;;11.31;84.50
74960;BME280;63518;49.572;1.106;2022-11-15T12:12:31;97928.75;;;11.36;84.65
74960;BME280;63518;49.572;1.106;2022-11-15T12:15:10;97931.19;;;11.55;84.65
74960;BME280;63518;49.572;1.106;2022-11-15T12:17:40;97912.56;;;11.43;84.74
74960;BME280;63518;49.572;1.106;2022-11-15T12:20:37;97910.31;;;11.71;84.54
74960;BME280;63518;49.572;1.106;2022-11-15T12:23:14;97909.66;;;11.40;84.83
74960;BME280;63518;49.572;1.106;2022-11-15T12:25:54;97871.63;;;11.33;85.27
74960;BME280;63518;49.572;1.106;2022-11-15T12:28:47;97900.44;;;11.62;84.00
74960;BME280;63518;49.572;1.106;2022-11-15T12:31:41;97891.19;;;11.66;84.09
74960;BME280;63518;49.572;1.106;2022-11-15T12:36:56;97877.28;;;11.45;84.89
74960;BME280;63518;49.572;1.106;2022-11-15T12:42:56;97896.56;;;11.54;85.58
74960;BME280;63518;49.572;1.106;2022-11-15T12:45:46;97904.13;;;11.92;83.59
74960;BME280;63518;49.572;1.106;2022-11-15T12:58:58;97890.72;;;11.82;84.25
74960;BME280;63518;49.572;1.106;2022-11-15T13:07:05;97866.59;;;11.70;84.46
74960;BME280;63518;49.572;1.106;2022-11-15T13:15:30;97832.72;;;11.78;83.84
74960;BME280;63518;49.572;1.106;2022-11-15T13:17:53;97845.34;;;11.79;84.90
74960;BME280;63518;49.572;1.106;2022-11-15T13:20:28;97867.22;;;11.93;84.33
74960;BME280;63518;49.572;1.106;2022-11-15T13:23:11;97826.81;;;12.06;83.37
74960;BME280;63518;49.572;1.106;2022-11-15T13:28:31;97782.69;;;11.67;83.75
74960;BME280;63518;49.572;1.106;2022-11-15T13:31:02;97782.38;;;11.60;84.41
74960;BME280;63518;49.572;1.106;2022-11-15T13:33:35;97763.84;;;11.31;84.14
74960;BME280;63518;49.572;1.106;2022-11-15T13:36:12;97789.84;;;11.51;85.27
74960;BME280;63518;49.572;1.106;2022-11-15T13:38:43;97810.66;;;11.95;83.44
74960;BME280;63518;49.572;1.106;2022-11-15T13:43:48;97782.03;;;11.70;84.57
74960;BME280;63518;49.572;1.106;2022-11-15T13:46:18;97791.03;;;11.97;85.17
74960;BME280;63518;49.572;1.106;2022-11-15T13:48:57;97758.28;;;11.49;84.47
74960;BME280;63518;49.572;1.106;2022-11-15T13:56:49;97795.06;;;11.99;84.54
74960;BME280;63518;49.572;1.106;2022-11-15T13:59:30;97751.13;;;11.65;84.85
74960;BME280;63518;49.572;1.106;2022-11-15T14:02:08;97753.03;;;11.73;83.95
74960;BME280;63518;49.572;1.106;2022-11-15T14:04:53;97759.81;;;11.84;83.85
74960;BME280;63518;49.572;1.106;2022-11-15T14:07:24;97774.66;;;12.00;83.50
74960;BME280;63518;49.572;1.106;2022-11-15T14:09:54;97757.63;;;12.07;82.87
74960;BME280;63518;49.572;1.106;2022-11-15T14:12:35;97768.97;;;12.06;83.82
74960;BME280;63518;49.572;1.106;2022-11-15T14:15:24;97785.91;;;12.25;84.08
74960;BME280;63518;49.572;1.106;2022-11-15T14:17:52;97770.13;;;12.34;83.44
74960;BME280;63518;49.572;1.106;2022-11-15T14:20:27;97784.28;;;12.53;83.09
74960;BME280;63518;49.572;1.106;2022-11-15T14:22:57;97772.00;;;12.51;82.62
74960;BME280;63518;49.572;1.106;2022-11-15T14:25:27;97779.47;;;12.12;83.63
74960;BME280;63518;49.572;1.106;2022-11-15T14:28:16;97715.38;;;12.33;82.60
74960;BME280;63518;49.572;1.106;2022-11-15T14:30:56;97761.47;;;12.15;83.38
74960;BME280;63518;49.572;1.106;2022-11-15T14:33:31;97779.63;;;12.45;83.33
74960;BME280;63518;49.572;1.106;2022-11-15T14:36:10;97766.75;;;12.79;81.61
74960;BME280;63518;49.572;1.106;2022-11-15T14:38:38;97746.31;;;12.29;82.38
74960;BME280;63518;49.572;1.106;2022-11-15T14:41:08;97755.84;;;12.62;82.13
74960;BME280;63518;49.572;1.106;2022-11-15T14:43:37;97733.28;;;12.39;82.45
74960;BME280;63518;49.572;1.106;2022-11-15T14:46:05;97765.19;;;12.48;82.45
74960;BME280;63518;49.572;1.106;2022-11-15T14:48:35;97720.09;;;12.23;83.20
74960;BME280;63518;49.572;1.106;2022-11-15T14:51:14;97716.97;;;12.54;80.82
74960;BME280;63518;49.572;1.106;2022-11-15T14:53:46;97729.31;;;12.27;81.72
74960;BME280;63518;49.572;1.106;2022-11-15T14:56:14;97766.00;;;12.70;82.10
74960;BME280;63518;49.572;1.106;2022-11-15T14:58:42;97726.13;;;12.46;80.88
74960;BME280;63518;49.572;1.106;2022-11-15T15:01:25;97757.78;;;12.40;82.48
74960;BME280;63518;49.572;1.106;2022-11-15T15:03:54;97743.72;;;12.33;83.01
74960;BME280;63518;49.572;1.106;2022-11-15T15:06:25;97726.41;;;12.24;83.01
74960;BME280;63518;49.572;1.106;2022-11-15T15:08:55;97736.09;;;12.60;81.44
74960;BME280;63518;49.572;1.106;2022-11-15T15:11:25;97749.94;;;12.51;81.75
74960;BME280;63518;49.572;1.106;2022-11-15T15:13:53;97744.34;;;12.60;82.39
74960;BME280;63518;49.572;1.106;2022-11-15T15:16:23;97688.28;;;12.35;81.69
74960;BME280;63518;49.572;1.106;2022-11-15T15:18:54;97723.81;;;12.27;83.24
74960;BME280;63518;49.572;1.106;2022-11-15T15:21:27;97683.91;;;12.04;83.49
74960;BME280;63518;49.572;1.106;2022-11-15T15:24:03;97699.56;;;12.42;81.73
74960;BME280;63518;49.572;1.106;2022-11-15T15:26:30;97680.88;;;11.97;82.61